Time;durP1;ratioP1;P1;durP2;ratioP2;P2;SDS_P1;SDS_P2;PMS_P1;PMS_P2;Temp;Humidity;BMP_temperature;BMP_pressure;BME280_temperature;BME280_humidity;BME280_pressure;Samples;Min_cycle;Max_cycle;Signal;HPM_P1;HPM_P2
2022/02/16 00:00:28;;;;;;;47.83;11.57;;;11.80;92.60;;;;;;5059817;28;20017;-44
2022/02/16 00:02:53;;;;;;;40.70;9.85;;;11.80;93.00;;;;;;5059783;28;20468;-43
2022/02/16 00:05:19;;;;;;;46.13;10.63;;;11.80;92.90;;;;;;5059600;28;20047;-44
2022/02/16 00:07:47;;;;;;;47.88;11.30;;;11.80;93.00;;;;;;5059432;28;20029;-44
2022/02/16 00:10:15;;;;;;;51.22;10.43;;;11.80;93.00;;;;;;5059247;28;20029;-43
2022/02/16 00:12:42;;;;;;;38.33;10.13;;;11.80;93.10;;;;;;5059334;28;20029;-44
2022/02/16 00:15:10;;;;;;;50.65;10.40;;;11.80;92.90;;;;;;5059534;28;20021;-43
2022/02/16 00:17:36;;;;;;;44.63;10.00;;;11.90;92.90;;;;;;5059401;28;20029;-44
2022/02/16 00:20:07;;;;;;;46.35;10.02;;;11.90;92.80;;;;;;5059222;28;20067;-45
2022/02/16 00:22:33;;;;;;;40.55;9.05;;;11.90;92.90;;;;;;5057491;28;20416;-44
2022/02/16 00:25:00;;;;;;;40.75;11.07;;;11.90;92.90;;;;;;5059560;28;20108;-43
2022/02/16 00:27:25;;;;;;;39.05;10.27;;;11.90;92.90;;;;;;5059052;28;20032;-44
2022/02/16 00:29:51;;;;;;;50.95;11.82;;;11.90;92.90;;;;;;5059247;28;20024;-44
2022/02/16 00:32:17;;;;;;;40.22;9.82;;;11.90;92.90;;;;;;5059148;28;20028;-43
2022/02/16 00:34:43;;;;;;;47.15;10.20;;;11.80;92.90;;;;;;5059159;28;20108;-43
2022/02/16 00:37:09;;;;;;;38.85;9.25;;;11.80;93.00;;;;;;5058790;28;20029;-44
2022/02/16 00:39:35;;;;;;;33.47;8.90;;;11.80;93.00;;;;;;5058558;28;20053;-44
2022/02/16 00:42:01;;;;;;;41.60;8.82;;;11.90;93.10;;;;;;5058766;28;20032;-43
2022/02/16 00:44:27;;;;;;;34.53;8.00;;;11.90;93.00;;;;;;5058740;28;20056;-44
2022/02/16 00:46:53;;;;;;;35.58;9.52;;;11.80;93.10;;;;;;5058871;28;20025;-44
2022/02/16 00:49:19;;;;;;;38.60;8.43;;;11.80;93.10;;;;;;5058648;28;20021;-44
2022/02/16 00:51:44;;;;;;;39.08;9.52;;;11.80;93.10;;;;;;5058547;28;20025;-43
2022/02/16 00:54:11;;;;;;;38.55;9.57;;;11.80;93.00;;;;;;5059030;28;20044;-43
2022/02/16 00:56:37;;;;;;;39.58;10.02;;;11.80;92.90;;;;;;5058486;28;20495;-43
2022/02/16 00:59:03;;;;;;;46.00;12.10;;;11.80;93.10;;;;;;5058511;28;20025;-44
2022/02/16 01:01:29;;;;;;;39.08;9.45;;;11.80;93.20;;;;;;5058616;28;20112;-44
2022/02/16 01:03:55;;;;;;;44.22;9.77;;;11.80;93.10;;;;;;5058391;28;20056;-43
2022/02/16 01:06:21;;;;;;;48.28;11.40;;;11.80;93.10;;;;;;5058251;28;20025;-44
2022/02/16 01:08:46;;;;;;;43.58;9.82;;;11.80;93.10;;;;;;5058590;28;20086;-44
2022/02/16 01:11:14;;;;;;;46.65;10.68;;;11.80;93.20;;;;;;5058316;28;20100;-45
2022/02/16 01:13:39;;;;;;;47.90;9.93;;;11.80;93.20;;;;;;5058344;28;20053;-44
2022/02/16 01:16:06;;;;;;;39.72;10.48;;;11.80;93.10;;;;;;5058153;28;20036;-44
2022/02/16 01:18:32;;;;;;;39.05;9.18;;;11.90;93.30;;;;;;5058330;28;20053;-44
2022/02/16 01:20:58;;;;;;;43.33;10.93;;;11.90;93.20;;;;;;5057860;28;20385;-44
2022/02/16 01:23:24;;;;;;;47.95;11.65;;;11.90;93.10;;;;;;5057149;28;20036;-43
2022/02/16 01:25:50;;;;;;;45.00;10.02;;;11.90;93.20;;;;;;5057962;28;20028;-45
2022/02/16 01:28:16;;;;;;;34.92;8.98;;;11.90;93.30;;;;;;5058114;28;20086;-44
2022/02/16 01:30:42;;;;;;;49.30;10.80;;;11.90;93.20;;;;;;5058455;28;20523;-43
2022/02/16 01:33:07;;;;;;;52.25;11.48;;;11.90;93.30;;;;;;5058191;28;20025;-44
2022/02/16 01:35:33;;;;;;;44.08;10.45;;;11.90;93.50;;;;;;5057856;28;20021;-44
2022/02/16 01:37:59;;;;;;;48.55;11.30;;;11.90;93.20;;;;;;5057598;28;20028;-44
2022/02/16 01:40:25;;;;;;;59.22;11.65;;;11.90;93.10;;;;;;5057771;28;20032;-44
2022/02/16 01:42:51;;;;;;;49.03;11.15;;;11.90;93.10;;;;;;5057777;28;20021;-44
2022/02/16 01:45:25;;;;;;;39.38;10.05;;;11.90;93.10;;;;;;5057718;28;20086;-46
2022/02/16 01:47:50;;;;;;;44.17;10.00;;;11.90;93.20;;;;;;5057970;28;20538;-44
2022/02/16 01:50:16;;;;;;;44.25;11.50;;;11.90;93.20;;;;;;5056918;28;20029;-44
2022/02/16 01:52:42;;;;;;;47.13;11.38;;;11.90;93.10;;;;;;5057675;28;20477;-44
2022/02/16 01:55:10;;;;;;;51.80;11.35;;;11.80;93.20;;;;;;5057541;28;20025;-44
2022/02/16 01:57:37;;;;;;;46.40;10.20;;;11.90;93.30;;;;;;5057782;28;20021;-43
2022/02/16 02:00:04;;;;;;;55.13;10.60;;;11.90;93.30;;;;;;5057726;28;20037;-44
2022/02/16 02:02:30;;;;;;;50.05;10.18;;;11.90;93.40;;;;;;5057588;28;20025;-43
2022/02/16 02:04:56;;;;;;;44.63;11.38;;;11.90;93.20;;;;;;5057608;28;20036;-43
2022/02/16 02:07:22;;;;;;;46.58;10.13;;;11.90;93.30;;;;;;5057899;28;20480;-43
2022/02/16 02:09:48;;;;;;;39.67;8.50;;;11.90;93.40;;;;;;5057178;28;20083;-43
2022/02/16 02:12:14;;;;;;;40.00;8.93;;;11.90;93.30;;;;;;5057378;28;20392;-43
2022/02/16 02:14:41;;;;;;;38.13;9.15;;;11.90;93.30;;;;;;5057770;28;20064;-43
2022/02/16 02:17:06;;;;;;;42.85;9.02;;;11.90;93.20;;;;;;5057395;28;20024;-43
2022/02/16 02:19:32;;;;;;;36.55;9.30;;;11.90;93.20;;;;;;5057611;28;20025;-43
2022/02/16 02:22:00;;;;;;;42.38;9.63;;;11.90;93.30;;;;;;5057091;28;20141;-43
2022/02/16 02:24:26;;;;;;;31.65;8.40;;;11.90;93.50;;;;;;5057256;28;20456;-43
2022/02/16 02:26:52;;;;;;;41.20;8.98;;;11.90;93.30;;;;;;5057758;28;20099;-44
2022/02/16 02:29:18;;;;;;;36.97;9.88;;;11.90;93.40;;;;;;5057646;28;20044;-44
2022/02/16 02:31:44;;;;;;;40.72;9.13;;;11.90;93.50;;;;;;5057288;28;20025;-43
2022/02/16 02:34:10;;;;;;;34.28;9.10;;;11.90;93.50;;;;;;5057598;28;20031;-44
2022/02/16 02:36:35;;;;;;;41.22;8.75;;;11.90;93.40;;;;;;5057641;28;20021;-43
2022/02/16 02:39:02;;;;;;;30.88;8.07;;;11.90;93.40;;;;;;5057559;28;20029;-45
2022/02/16 02:41:28;;;;;;;40.13;8.45;;;11.90;93.40;;;;;;5057596;28;20021;-44
2022/02/16 02:43:53;;;;;;;39.63;9.68;;;11.90;93.50;;;;;;5057352;28;20108;-43
2022/02/16 02:46:19;;;;;;;42.10;9.60;;;11.90;93.50;;;;;;5057338;28;20013;-44
2022/02/16 02:48:46;;;;;;;41.03;9.63;;;11.90;93.50;;;;;;5057461;28;20461;-45
2022/02/16 02:51:14;;;;;;;39.28;9.57;;;11.90;93.50;;;;;;5057443;28;20017;-44
2022/02/16 02:53:40;;;;;;;41.25;9.52;;;11.90;93.50;;;;;;5057129;28;20021;-43
2022/02/16 02:56:07;;;;;;;38.50;9.15;;;11.90;93.50;;;;;;5056985;28;20010;-44
2022/02/16 02:58:34;;;;;;;40.72;9.57;;;11.90;93.60;;;;;;5057051;28;20033;-43
2022/02/16 03:01:00;;;;;;;33.95;9.98;;;11.90;93.70;;;;;;5057708;28;20031;-43
2022/02/16 03:03:26;;;;;;;40.28;9.95;;;11.90;93.70;;;;;;5060714;28;20118;-45
2022/02/16 03:05:52;;;;;;;50.20;11.43;;;12.00;93.80;;;;;;5060821;28;20025;-44
2022/02/16 03:08:19;;;;;;;38.97;8.98;;;12.00;93.80;;;;;;5060741;28;20025;-43
2022/02/16 03:10:45;;;;;;;41.50;9.80;;;12.00;93.70;;;;;;5060496;28;20109;-43
2022/02/16 03:13:20;;;;;;;40.20;9.55;;;12.00;93.50;;;;;;5060505;28;20087;-44
2022/02/16 03:15:47;;;;;;;48.80;9.43;;;12.00;93.60;;;;;;5060628;28;20078;-44
2022/02/16 03:18:13;;;;;;;43.72;8.75;;;12.00;93.80;;;;;;5060605;28;20100;-44
2022/02/16 03:20:39;;;;;;;36.65;8.95;;;12.00;93.60;;;;;;5060367;28;20018;-43
2022/02/16 03:23:05;;;;;;;40.50;8.80;;;12.10;93.70;;;;;;5060521;28;20036;-44
2022/02/16 03:25:31;;;;;;;34.80;7.70;;;12.10;93.60;;;;;;5060628;28;20508;-44
2022/02/16 03:27:57;;;;;;;36.22;8.32;;;12.10;93.70;;;;;;5060373;28;20024;-43
2022/02/16 03:30:22;;;;;;;36.47;8.63;;;12.10;93.70;;;;;;5060269;28;20033;-44
2022/02/16 03:32:48;;;;;;;36.50;7.70;;;12.20;93.70;;;;;;5060303;28;20530;-44
2022/02/16 03:35:14;;;;;;;28.33;6.68;;;12.20;93.60;;;;;;5060401;28;20036;-44
2022/02/16 03:37:40;;;;;;;39.88;8.82;;;12.20;93.60;;;;;;5059997;28;20028;-46
2022/02/16 03:40:06;;;;;;;32.33;7.93;;;12.20;93.80;;;;;;5060400;28;20033;-44
2022/02/16 03:42:32;;;;;;;29.10;7.18;;;12.20;93.80;;;;;;5060095;28;20033;-44
2022/02/16 03:44:58;;;;;;;33.55;8.32;;;12.20;93.80;;;;;;5060069;28;20059;-43
2022/02/16 03:47:23;;;;;;;22.60;5.82;;;12.20;93.70;;;;;;5059803;28;20086;-43
2022/02/16 03:49:49;;;;;;;29.23;6.72;;;12.20;93.80;;;;;;5059724;28;20056;-43
2022/02/16 03:52:15;;;;;;;35.22;7.53;;;12.20;93.70;;;;;;5059743;28;20028;-45
2022/02/16 03:54:40;;;;;;;31.35;7.95;;;12.30;93.90;;;;;;5059686;28;20035;-43
2022/02/16 03:57:06;;;;;;;36.85;7.80;;;12.20;93.90;;;;;;5059764;28;20021;-43
2022/02/16 03:59:32;;;;;;;38.30;9.02;;;12.20;93.90;;;;;;5059587;28;20499;-45
2022/02/16 04:02:01;;;;;;;35.15;9.30;;;12.20;93.90;;;;;;5059837;28;20032;-43
2022/02/16 04:04:28;;;;;;;38.17;8.88;;;12.20;93.90;;;;;;5059482;28;20104;-43
2022/02/16 04:06:53;;;;;;;34.78;8.27;;;12.30;93.90;;;;;;5059498;28;20025;-43
2022/02/16 04:09:19;;;;;;;42.33;8.52;;;12.20;93.80;;;;;;5059502;28;20035;-45
2022/02/16 04:11:45;;;;;;;31.92;7.43;;;12.20;93.90;;;;;;5059613;28;20056;-45
2022/02/16 04:14:11;;;;;;;43.53;8.18;;;12.30;93.80;;;;;;5058726;28;20060;-43
2022/02/16 04:16:37;;;;;;;37.85;8.50;;;12.20;93.90;;;;;;5059510;28;20549;-44
2022/02/16 04:19:02;;;;;;;41.45;8.10;;;12.20;93.90;;;;;;5059456;28;20029;-43
2022/02/16 04:21:28;;;;;;;43.05;9.60;;;12.20;93.90;;;;;;5058942;28;20053;-44
2022/02/16 04:23:54;;;;;;;45.95;9.55;;;12.30;93.80;;;;;;5059302;28;20047;-46
2022/02/16 04:26:20;;;;;;;48.30;9.73;;;12.20;93.80;;;;;;5058272;28;20017;-44
2022/02/16 04:28:47;;;;;;;45.55;10.90;;;12.30;93.70;;;;;;5059193;28;20029;-43
2022/02/16 04:31:12;;;;;;;46.50;11.05;;;12.20;93.70;;;;;;5059012;28;20796;-44
2022/02/16 04:33:38;;;;;;;51.03;10.48;;;12.20;93.80;;;;;;5058912;28;20028;-43
2022/02/16 04:36:04;;;;;;;38.70;9.30;;;12.20;93.80;;;;;;5059159;28;20021;-44
2022/02/16 04:38:30;;;;;;;43.13;10.13;;;12.20;93.70;;;;;;5059232;28;20461;-44
2022/02/16 04:40:56;;;;;;;44.72;8.95;;;12.20;93.80;;;;;;5059267;28;20020;-44
2022/02/16 04:43:22;;;;;;;39.47;9.00;;;12.20;93.90;;;;;;5058772;28;20036;-44
2022/02/16 04:45:47;;;;;;;40.55;11.63;;;12.20;93.90;;;;;;5058897;28;20078;-43
2022/02/16 04:48:13;;;;;;;37.60;9.65;;;12.20;93.90;;;;;;5057171;28;20037;-44
2022/02/16 04:50:39;;;;;;;34.92;8.90;;;12.20;94.00;;;;;;5058811;28;20086;-44
2022/02/16 04:53:05;;;;;;;44.03;8.95;;;12.20;93.80;;;;;;5058814;28;20054;-43
2022/02/16 04:55:31;;;;;;;39.10;9.70;;;12.20;94.00;;;;;;5058574;28;20017;-44
2022/02/16 04:57:57;;;;;;;44.08;9.30;;;12.20;94.00;;;;;;5058792;28;20033;-44
2022/02/16 05:00:24;;;;;;;43.78;8.98;;;12.20;94.00;;;;;;5058669;28;20029;-44
2022/02/16 05:02:50;;;;;;;43.70;9.68;;;12.20;93.90;;;;;;5058493;28;20044;-43
2022/02/16 05:05:15;;;;;;;39.47;9.68;;;12.20;94.00;;;;;;5058604;28;20029;-43
2022/02/16 05:07:41;;;;;;;47.45;10.20;;;12.20;94.00;;;;;;5058350;28;20050;-43
2022/02/16 05:10:08;;;;;;;42.20;10.52;;;12.20;94.00;;;;;;5058412;28;20029;-44
2022/02/16 05:12:35;;;;;;;52.35;11.55;;;12.20;94.10;;;;;;5058806;28;20051;-43
2022/02/16 05:15:02;;;;;;;44.55;10.30;;;12.20;94.00;;;;;;5058217;28;20382;-45
2022/02/16 05:17:29;;;;;;;59.28;12.15;;;12.20;94.00;;;;;;5058125;28;20408;-43
2022/02/16 05:19:55;;;;;;;43.05;11.63;;;12.20;94.10;;;;;;5058489;28;20056;-43
2022/02/16 05:22:21;;;;;;;48.03;10.35;;;12.20;93.90;;;;;;5058032;28;20052;-43
2022/02/16 05:24:47;;;;;;;41.67;10.25;;;12.20;93.70;;;;;;5057940;28;20451;-44
2022/02/16 05:27:14;;;;;;;44.63;11.13;;;12.20;93.90;;;;;;5057795;28;20124;-44
2022/02/16 05:29:40;;;;;;;46.17;9.40;;;12.20;93.90;;;;;;5057784;28;20507;-43
2022/02/16 05:32:06;;;;;;;49.78;10.85;;;12.20;94.00;;;;;;5058073;28;20024;-45
2022/02/16 05:34:32;;;;;;;38.15;8.98;;;12.20;94.00;;;;;;5057857;28;20021;-44
2022/02/16 05:36:58;;;;;;;42.38;10.55;;;12.20;94.10;;;;;;5057862;28;20024;-43
2022/02/16 05:39:23;;;;;;;40.17;8.13;;;12.20;94.10;;;;;;5057797;28;20043;-44
2022/02/16 05:41:49;;;;;;;36.55;8.82;;;12.20;94.10;;;;;;5057772;28;20024;-45
2022/02/16 05:44:15;;;;;;;41.28;8.68;;;12.20;94.10;;;;;;5058167;28;20052;-45
2022/02/16 05:46:41;;;;;;;33.92;8.57;;;12.20;94.10;;;;;;5057694;28;20108;-44
2022/02/16 05:49:08;;;;;;;38.78;7.85;;;12.20;94.20;;;;;;5057817;28;20021;-45
2022/02/16 05:51:37;;;;;;;31.42;9.43;;;12.20;94.10;;;;;;5057873;28;20129;-46
2022/02/16 05:54:03;;;;;;;45.15;9.25;;;12.20;94.20;;;;;;5057788;28;20096;-43
2022/02/16 05:56:29;;;;;;;42.13;13.10;;;12.20;94.20;;;;;;5057815;28;20048;-44
2022/02/16 05:58:55;;;;;;;45.92;9.48;;;12.20;94.40;;;;;;5057362;28;20048;-44
2022/02/16 06:01:21;;;;;;;42.45;8.55;;;12.20;94.30;;;;;;5057254;28;20024;-43
2022/02/16 06:03:47;;;;;;;42.15;9.25;;;12.20;94.40;;;;;;5057510;28;20021;-44
2022/02/16 06:06:13;;;;;;;35.40;9.05;;;12.20;94.50;;;;;;5057514;28;20064;-44
2022/02/16 06:08:38;;;;;;;35.13;8.90;;;12.20;94.30;;;;;;5057866;28;20025;-44
2022/02/16 06:11:04;;;;;;;26.70;7.70;;;12.20;94.40;;;;;;5057703;28;20025;-43
2022/02/16 06:13:31;;;;;;;34.95;8.15;;;12.20;94.40;;;;;;5057288;28;20538;-44
2022/02/16 06:15:56;;;;;;;31.58;8.65;;;12.20;94.40;;;;;;5057620;28;20040;-43
2022/02/16 06:18:22;;;;;;;37.88;8.65;;;12.20;94.50;;;;;;5057456;28;20025;-44
2022/02/16 06:20:48;;;;;;;35.13;9.27;;;12.20;94.60;;;;;;5057581;28;20037;-43
2022/02/16 06:23:14;;;;;;;36.33;12.48;;;12.20;94.40;;;;;;5057394;28;20025;-43
2022/02/16 06:25:39;;;;;;;25.40;6.13;;;12.20;94.60;;;;;;5057529;28;20111;-44
2022/02/16 06:28:05;;;;;;;27.20;7.68;;;12.20;94.60;;;;;;5057523;28;20021;-44
2022/02/16 06:30:31;;;;;;;26.58;6.85;;;12.20;94.60;;;;;;5057210;28;20037;-44
2022/02/16 06:32:57;;;;;;;26.48;8.13;;;12.20;94.70;;;;;;5057473;28;20017;-44
2022/02/16 06:35:23;;;;;;;27.63;7.88;;;12.20;94.60;;;;;;5057426;28;20052;-46
2022/02/16 06:37:49;;;;;;;32.28;7.63;;;12.20;94.60;;;;;;5060999;28;20021;-44
2022/02/16 06:40:15;;;;;;;38.42;9.05;;;12.20;94.70;;;;;;5061121;28;20042;-45
2022/02/16 06:42:42;;;;;;;35.55;7.72;;;12.20;94.70;;;;;;5061068;28;20100;-44
2022/02/16 06:45:09;;;;;;;26.95;6.13;;;12.20;94.70;;;;;;5060815;28;20494;-44
2022/02/16 06:47:36;;;;;;;27.27;7.28;;;12.20;94.70;;;;;;5060967;28;20013;-43
2022/02/16 06:50:03;;;;;;;28.70;7.47;;;12.20;94.70;;;;;;5061027;28;20029;-43
2022/02/16 06:52:28;;;;;;;31.52;7.15;;;12.20;94.70;;;;;;5060869;28;20025;-44
2022/02/16 06:54:54;;;;;;;29.80;5.93;;;12.20;94.80;;;;;;5061279;28;20040;-44
2022/02/16 06:57:20;;;;;;;22.15;5.68;;;12.20;94.90;;;;;;5059559;28;20017;-44
2022/02/16 06:59:46;;;;;;;19.85;5.72;;;12.20;94.80;;;;;;5060778;28;20029;-43
2022/02/16 07:02:12;;;;;;;19.13;5.38;;;12.20;94.80;;;;;;5060899;28;20025;-44
2022/02/16 07:04:38;;;;;;;21.13;4.80;;;12.20;94.70;;;;;;5060999;28;20035;-46
2022/02/16 07:07:04;;;;;;;19.70;5.43;;;12.20;94.80;;;;;;5060576;28;20052;-44
2022/02/16 07:09:30;;;;;;;26.55;6.32;;;12.20;94.90;;;;;;5060731;28;20039;-44
2022/02/16 07:11:56;;;;;;;22.17;5.28;;;12.20;94.90;;;;;;5060509;28;20043;-43
2022/02/16 07:14:23;;;;;;;20.30;4.68;;;12.20;94.90;;;;;;5060896;28;20017;-44
2022/02/16 07:16:49;;;;;;;18.30;4.80;;;12.20;94.90;;;;;;5060458;28;20021;-45
2022/02/16 07:19:24;;;;;;;17.55;4.65;;;12.20;94.90;;;;;;5060425;28;20029;-44
2022/02/16 07:21:49;;;;;;;;;;;12.20;94.90;;;;;;5060777;28;20075;-44
2022/02/16 07:24:15;;;;;;;20.20;4.15;;;12.20;94.90;;;;;;5060253;28;20438;-43
2022/02/16 07:26:41;;;;;;;17.23;5.40;;;12.20;94.90;;;;;;5060713;28;20102;-43
2022/02/16 07:29:07;;;;;;;21.58;5.03;;;12.20;95.00;;;;;;5060606;28;20048;-44
2022/02/16 07:31:33;;;;;;;19.95;4.43;;;12.20;94.90;;;;;;5060644;28;20029;-43
2022/02/16 07:33:58;;;;;;;21.17;5.38;;;12.20;95.00;;;;;;5060339;28;20017;-44
2022/02/16 07:36:24;;;;;;;23.85;5.53;;;12.20;94.90;;;;;;5060361;28;20036;-46
2022/02/16 07:38:50;;;;;;;25.65;6.20;;;12.20;95.00;;;;;;5060247;28;20384;-45
2022/02/16 07:41:16;;;;;;;22.63;5.57;;;12.20;94.90;;;;;;5060157;28;20033;-43
2022/02/16 07:43:42;;;;;;;24.38;6.72;;;12.20;95.00;;;;;;5059953;28;20542;-44
2022/02/16 07:46:09;;;;;;;21.35;5.25;;;12.20;94.90;;;;;;5060100;28;20068;-44
2022/02/16 07:48:34;;;;;;;21.67;6.85;;;12.30;94.90;;;;;;5058456;28;20365;-44
2022/02/16 07:51:00;;;;;;;20.80;5.22;;;12.30;95.00;;;;;;5060272;28;20023;-45
2022/02/16 07:53:26;;;;;;;24.75;6.35;;;12.30;95.20;;;;;;5059718;28;20036;-44
2022/02/16 07:55:52;;;;;;;30.77;6.15;;;12.30;95.10;;;;;;5059494;28;20025;-44
2022/02/16 07:58:18;;;;;;;23.05;5.32;;;12.30;95.10;;;;;;5059899;28;20025;-44
2022/02/16 08:00:44;;;;;;;25.55;6.88;;;12.40;95.00;;;;;;5059674;28;20021;-44
2022/02/16 08:03:10;;;;;;;34.03;7.72;;;12.40;95.00;;;;;;5058567;28;20056;-44
2022/02/16 08:05:36;;;;;;;31.23;7.43;;;12.40;95.00;;;;;;5059261;28;20032;-45
2022/02/16 08:08:02;;;;;;;23.83;5.93;;;12.40;95.10;;;;;;5059174;28;20488;-47
2022/02/16 08:10:28;;;;;;;21.50;5.60;;;12.40;95.10;;;;;;5059159;28;20021;-45
2022/02/16 08:12:58;;;;;;;23.75;6.15;;;12.40;95.10;;;;;;5059077;28;20036;-44
2022/02/16 08:15:28;;;;;;;21.05;4.90;;;12.40;95.20;;;;;;5058921;28;20017;-45
2022/02/16 08:17:55;;;;;;;24.40;6.65;;;12.40;95.10;;;;;;5058699;28;20108;-44
2022/02/16 08:20:22;;;;;;;26.70;5.47;;;12.40;95.00;;;;;;5059023;28;20025;-45
2022/02/16 08:22:47;;;;;;;27.15;6.43;;;12.50;95.00;;;;;;5058491;28;20053;-45
2022/02/16 08:25:13;;;;;;;28.40;7.93;;;12.50;94.90;;;;;;5059111;28;20106;-44
2022/02/16 08:27:42;;;;;;;23.20;7.13;;;12.40;95.10;;;;;;5058674;28;20427;-44
2022/02/16 08:30:12;;;;;;;18.90;5.38;;;12.40;95.10;;;;;;5058680;28;20100;-45
2022/02/16 08:32:40;;;;;;;23.48;5.82;;;12.40;95.00;;;;;;5058940;28;20036;-45
2022/02/16 08:35:10;;;;;;;20.50;5.07;;;12.40;95.10;;;;;;5058470;28;20028;-44
2022/02/16 08:37:36;;;;;;;21.70;5.40;;;12.40;95.10;;;;;;5058584;28;20013;-45
2022/02/16 08:40:05;;;;;;;18.15;5.13;;;12.40;95.10;;;;;;5058202;28;20029;-46
2022/02/16 08:42:31;;;;;;;22.98;6.15;;;12.40;95.10;;;;;;5058538;28;20032;-46
2022/02/16 08:44:58;;;;;;;20.17;5.28;;;12.40;95.20;;;;;;5058309;28;20029;-44
2022/02/16 08:47:25;;;;;;;19.50;5.07;;;12.40;95.10;;;;;;5058441;28;20036;-45
2022/02/16 08:49:51;;;;;;;20.40;7.05;;;12.40;95.20;;;;;;5058039;28;20060;-44
2022/02/16 08:52:17;;;;;;;17.88;5.18;;;12.40;95.10;;;;;;5058140;28;20021;-47
2022/02/16 08:54:43;;;;;;;20.45;5.55;;;12.40;95.00;;;;;;5058933;28;20025;-45
2022/02/16 08:57:09;;;;;;;26.90;6.15;;;12.40;95.20;;;;;;5058506;28;20027;-46
2022/02/16 08:59:35;;;;;;;22.58;5.32;;;12.40;95.20;;;;;;5056756;28;20032;-44
2022/02/16 09:02:01;;;;;;;25.40;6.68;;;12.40;95.20;;;;;;5057019;28;20013;-45
2022/02/16 09:04:27;;;;;;;20.77;4.57;;;12.40;95.20;;;;;;5057737;28;20025;-44
2022/02/16 09:09:38;;;;;;;21.38;5.10;;;12.40;95.10;;;;;;5058371;28;20075;-49
2022/02/16 09:12:07;;;;;;;22.35;7.80;;;12.40;95.10;;;;;;5058388;28;20043;-45
2022/02/16 09:14:35;;;;;;;18.25;5.43;;;12.40;95.20;;;;;;5058548;28;20021;-44
2022/02/16 09:17:02;;;;;;;19.70;5.80;;;12.40;95.20;;;;;;5058389;28;20076;-45
2022/02/16 09:19:27;;;;;;;22.27;5.60;;;12.40;95.20;;;;;;5058197;28;20033;-44
2022/02/16 09:21:53;;;;;;;26.17;5.05;;;12.40;95.20;;;;;;5057917;28;20056;-43
2022/02/16 09:24:20;;;;;;;23.33;6.25;;;12.40;95.30;;;;;;5058517;28;20071;-44
2022/02/16 09:26:50;;;;;;;26.50;6.43;;;12.50;95.30;;;;;;5058239;28;20028;-43
2022/02/16 09:29:17;;;;;;;21.65;5.70;;;12.40;95.40;;;;;;5058140;28;20389;-44
2022/02/16 09:31:43;;;;;;;20.67;5.00;;;12.50;95.30;;;;;;5058166;28;20021;-45
2022/02/16 09:34:09;;;;;;;20.33;4.90;;;12.50;95.30;;;;;;5057882;28;20070;-44
2022/02/16 09:36:35;;;;;;;17.33;4.82;;;12.50;95.40;;;;;;5057907;28;20017;-44
2022/02/16 09:39:02;;;;;;;21.15;5.28;;;12.50;95.40;;;;;;5058027;28;20099;-44
2022/02/16 09:41:29;;;;;;;21.92;6.53;;;12.50;95.40;;;;;;5058058;28;20028;-45
2022/02/16 09:43:59;;;;;;;14.77;3.80;;;12.50;95.20;;;;;;5057951;28;20113;-44
2022/02/16 09:46:25;;;;;;;33.00;6.00;;;12.50;95.30;;;;;;5057770;28;20035;-43
2022/02/16 09:48:51;;;;;;;33.25;5.60;;;12.50;95.30;;;;;;5057828;28;20032;-44
2022/02/16 09:51:18;;;;;;;19.13;4.57;;;12.50;95.30;;;;;;5057674;28;20017;-43
2022/02/16 09:53:44;;;;;;;16.48;5.07;;;12.50;95.30;;;;;;5057677;28;20028;-44
2022/02/16 09:56:10;;;;;;;19.38;4.90;;;12.50;95.30;;;;;;5057650;28;20017;-45
2022/02/16 09:58:36;;;;;;;25.30;7.18;;;12.50;95.30;;;;;;5057567;28;20021;-44
2022/02/16 10:01:16;;;;;;;20.48;5.68;;;12.50;95.30;;;;;;5057610;28;20028;-44
2022/02/16 10:04:09;;;;;;;25.33;7.85;;;12.50;95.30;;;;;;5057568;28;20037;-44
2022/02/16 10:06:48;;;;;;;24.42;7.18;;;12.50;95.40;;;;;;5057308;28;20028;-44
2022/02/16 10:09:31;;;;;;;21.88;6.68;;;12.50;95.40;;;;;;5057466;28;20066;-44
2022/02/16 10:12:03;;;;;;;24.58;6.25;;;12.60;95.30;;;;;;5059954;28;20028;-44
2022/02/16 10:14:38;;;;;;;21.95;6.03;;;12.50;95.40;;;;;;5061747;28;20021;-43
2022/02/16 10:17:30;;;;;;;25.10;7.63;;;12.50;95.50;;;;;;5061595;28;20052;-44
2022/02/16 10:19:57;;;;;;;25.33;7.07;;;12.50;95.40;;;;;;5061073;28;20510;-44
2022/02/16 10:22:41;;;;;;;25.85;6.43;;;12.50;95.50;;;;;;5061269;28;20056;-44
2022/02/16 10:25:10;;;;;;;21.65;6.80;;;12.50;95.50;;;;;;5061660;28;20053;-43
2022/02/16 10:27:36;;;;;;;20.13;5.60;;;12.50;95.40;;;;;;5061368;28;20025;-44
2022/02/16 10:30:11;;;;;;;25.13;5.57;;;12.60;95.40;;;;;;5061557;28;20041;-44
2022/02/16 10:32:36;;;;;;;18.98;9.25;;;12.60;95.60;;;;;;5061287;28;20088;-44
2022/02/16 10:35:03;;;;;;;20.38;4.45;;;12.60;95.50;;;;;;5061386;28;20437;-44
2022/02/16 10:37:33;;;;;;;21.38;5.35;;;12.60;95.50;;;;;;5061364;28;20032;-44
2022/02/16 10:40:12;;;;;;;19.20;5.05;;;12.60;95.60;;;;;;5061418;28;20492;-44
2022/02/16 10:42:51;;;;;;;15.10;4.10;;;12.60;95.70;;;;;;5060910;28;20055;-44
2022/02/16 10:45:21;;;;;;;17.35;4.78;;;12.60;95.70;;;;;;5060984;28;20033;-44
2022/02/16 10:47:52;;;;;;;15.20;4.00;;;12.60;95.50;;;;;;5061246;28;20027;-44
2022/02/16 10:50:20;;;;;;;28.38;6.20;;;12.60;95.50;;;;;;5061044;28;20025;-44
2022/02/16 10:52:55;;;;;;;24.02;7.45;;;12.50;95.60;;;;;;5059472;28;20041;-44
2022/02/16 10:55:42;;;;;;;22.67;5.25;;;12.60;95.40;;;;;;5060633;28;20025;-46
2022/02/16 10:58:10;;;;;;;17.27;4.80;;;12.60;95.40;;;;;;5060701;28;20017;-44
2022/02/16 11:00:38;;;;;;;22.30;5.22;;;12.60;95.50;;;;;;5060896;28;20085;-43
2022/02/16 11:03:06;;;;;;;23.40;5.82;;;12.60;95.30;;;;;;5060918;28;20106;-44
2022/02/16 11:05:35;;;;;;;18.17;4.57;;;12.60;95.30;;;;;;5059943;28;20029;-48
2022/02/16 11:08:02;;;;;;;22.63;5.40;;;12.60;95.50;;;;;;5059940;28;20025;-45
2022/02/16 11:10:29;;;;;;;21.45;5.88;;;12.60;95.50;;;;;;5059956;28;20032;-48
2022/02/16 11:12:57;;;;;;;19.70;5.35;;;12.60;95.50;;;;;;5059919;28;20366;-45
2022/02/16 11:15:24;;;;;;;40.90;6.43;;;12.60;95.40;;;;;;5059990;28;20029;-45
2022/02/16 11:17:49;;;;;;;18.98;5.32;;;12.60;95.50;;;;;;5060487;28;20029;-47
2022/02/16 11:20:20;;;;;;;25.77;6.30;;;12.60;95.50;;;;;;5058426;28;20035;-44
2022/02/16 11:22:57;;;;;;;23.85;5.68;;;12.60;95.40;;;;;;5059247;28;20048;-47
2022/02/16 11:25:29;;;;;;;22.13;5.40;;;12.60;95.30;;;;;;5060047;28;20051;-44
2022/02/16 11:27:56;;;;;;;43.33;7.13;;;12.60;95.30;;;;;;5059909;28;20025;-45
2022/02/16 11:30:30;;;;;;;27.13;6.05;;;12.50;95.20;;;;;;5058309;28;20120;-44
2022/02/16 11:33:20;;;;;;;30.90;5.93;;;12.50;95.20;;;;;;5059528;28;20036;-45
2022/02/16 11:35:50;;;;;;;26.10;5.28;;;12.50;95.30;;;;;;5059827;28;20035;-46
2022/02/16 11:38:19;;;;;;;21.52;5.53;;;12.50;95.50;;;;;;5059856;28;20025;-44
2022/02/16 11:40:55;;;;;;;21.02;4.90;;;12.50;95.40;;;;;;5059435;28;20029;-45
2022/02/16 11:43:54;;;;;;;14.68;4.43;;;12.50;95.40;;;;;;5060004;28;20060;-46
2022/02/16 11:46:39;;;;;;;48.47;8.70;;;12.50;95.50;;;;;;5059208;28;20537;-49
2022/02/16 11:49:06;;;;;;;28.38;6.00;;;12.50;95.50;;;;;;5059030;28;20036;-45
2022/02/16 11:51:36;;;;;;;23.98;5.63;;;12.50;95.50;;;;;;5059382;28;20151;-45
2022/02/16 11:54:40;;;;;;;30.92;6.50;;;12.50;95.50;;;;;;5058979;28;20424;-44
2022/02/16 11:57:31;;;;;;;22.48;5.57;;;12.50;95.50;;;;;;5059409;28;20029;-45
2022/02/16 11:59:59;;;;;;;23.70;6.82;;;12.50;95.60;;;;;;5059080;28;20041;-44
2022/02/16 12:02:25;;;;;;;20.95;6.00;;;12.50;95.80;;;;;;5059521;28;20021;-45
2022/02/16 12:04:57;;;;;;;24.25;6.18;;;12.50;96.00;;;;;;5059537;28;20033;-44
2022/02/16 12:07:25;;;;;;;22.25;6.43;;;12.50;95.80;;;;;;5059019;28;20415;-45
2022/02/16 12:10:20;;;;;;;21.88;6.20;;;12.60;95.70;;;;;;5059311;28;20426;-45
2022/02/16 12:12:47;;;;;;;26.08;7.18;;;12.60;95.80;;;;;;5059097;28;20041;-45
2022/02/16 12:15:16;;;;;;;35.45;9.20;;;12.60;95.60;;;;;;5058984;28;20416;-46
2022/02/16 12:17:42;;;;;;;54.70;9.32;;;12.60;95.60;;;;;;5058988;28;20026;-45
2022/02/16 12:20:08;;;;;;;41.35;13.88;;;12.60;95.70;;;;;;5059271;28;20153;-46
2022/02/16 12:22:35;;;;;;;30.58;8.55;;;12.60;95.90;;;;;;5058340;28;20132;-45
2022/02/16 12:25:14;;;;;;;52.00;12.07;;;12.60;95.90;;;;;;5058755;28;20040;-44
2022/02/16 12:27:43;;;;;;;56.70;14.35;;;12.60;95.90;;;;;;5058694;28;20084;-45
2022/02/16 12:30:10;;;;;;;49.25;10.93;;;12.60;95.90;;;;;;5058789;28;20024;-44
2022/02/16 12:32:36;;;;;;;50.15;12.85;;;12.60;95.90;;;;;;5058494;28;20451;-44
2022/02/16 12:35:04;;;;;;;55.30;13.30;;;12.60;95.80;;;;;;5056907;28;20025;-44
2022/02/16 12:37:31;;;;;;;61.75;13.85;;;12.70;96.00;;;;;;5058692;28;20017;-46
2022/02/16 12:40:04;;;;;;;58.70;13.60;;;12.70;96.00;;;;;;5058345;28;20025;-46